createdAt,value
2019-04-28T00:00:48.346Z,11.67
2019-04-28T00:03:20.772Z,11.77
2019-04-28T00:05:52.134Z,12.90
2019-04-28T00:08:23.870Z,13.67
2019-04-28T00:10:55.378Z,12.63
2019-04-28T00:13:26.456Z,13.37
2019-04-28T00:15:59.162Z,14.13
2019-04-28T00:18:31.695Z,13.90
2019-04-28T00:21:18.586Z,13.33
2019-04-28T00:23:59.115Z,12.80
2019-04-28T00:26:51.932Z,13.57
2019-04-28T00:29:22.687Z,13.23
2019-04-28T00:31:54.067Z,15.23
2019-04-28T00:34:25.226Z,14.33
2019-04-28T00:37:01.461Z,14.97
2019-04-28T00:39:32.394Z,15.40
2019-04-28T00:42:03.679Z,14.77
2019-04-28T00:44:35.674Z,16.27
2019-04-28T00:47:06.850Z,15.93
2019-04-28T00:49:46.678Z,16.03
2019-04-28T00:52:22.145Z,15.60
2019-04-28T00:54:53.567Z,14.53
2019-04-28T00:57:25.038Z,14.63
2019-04-28T00:59:58.591Z,15.57
2019-04-28T01:02:36.850Z,15.23
2019-04-28T01:05:11.225Z,14.67
2019-04-28T01:07:42.835Z,13.90
2019-04-28T01:10:14.925Z,15.63
2019-04-28T01:12:46.766Z,14.70
2019-04-28T01:15:31.692Z,16.37
2019-04-28T01:18:20.107Z,15.13
2019-04-28T01:20:50.998Z,14.50
2019-04-28T01:23:22.319Z,13.77
2019-04-28T01:25:53.335Z,15.33
2019-04-28T01:28:24.370Z,14.00
2019-04-28T01:31:17.147Z,14.23
2019-04-28T01:34:07.318Z,15.50
2019-04-28T01:36:39.994Z,15.63
2019-04-28T01:39:11.570Z,15.37
2019-04-28T01:41:42.554Z,17.90
2019-04-28T01:44:14.606Z,14.73
2019-04-28T01:46:45.683Z,15.53
2019-04-28T01:49:16.834Z,16.13
2019-04-28T01:52:00.524Z,17.07
2019-04-28T01:54:31.028Z,16.80
2019-04-28T01:57:03.080Z,17.20
2019-04-28T01:59:34.072Z,17.60
2019-04-28T02:02:05.386Z,17.53
2019-04-28T02:04:37.591Z,19.17
2019-04-28T02:07:10.884Z,16.03
2019-04-28T02:09:41.362Z,16.40
2019-04-28T02:12:12.250Z,17.37
2019-04-28T02:14:43.215Z,16.10
2019-04-28T02:17:14.401Z,17.33
2019-04-28T02:19:45.326Z,18.90
2019-04-28T02:22:31.791Z,17.93
2019-04-28T02:25:03.183Z,19.33
2019-04-28T02:27:34.147Z,19.13
2019-04-28T02:30:07.223Z,19.00
2019-04-28T02:32:40.750Z,18.97
2019-04-28T02:35:11.756Z,20.47
2019-04-28T02:37:42.930Z,18.20
2019-04-28T02:40:14.273Z,21.33
2019-04-28T02:42:45.520Z,18.53
2019-04-28T02:45:21.981Z,17.73
2019-04-28T02:47:55.576Z,17.90
2019-04-28T02:50:45.847Z,16.33
2019-04-28T02:53:26.222Z,18.10
2019-04-28T02:55:57.326Z,19.50
2019-04-28T02:58:31.018Z,18.07
2019-04-28T03:01:11.100Z,19.60
2019-04-28T03:03:34.179Z,19.80
2019-04-28T03:06:05.135Z,20.00
2019-04-28T03:08:36.241Z,19.93
2019-04-28T03:11:07.160Z,20.23
2019-04-28T03:13:40.933Z,20.07
2019-04-28T03:16:11.367Z,19.73
2019-04-28T03:18:42.177Z,20.87
2019-04-28T03:21:13.154Z,19.97
2019-04-28T03:23:44.104Z,20.03
2019-04-28T03:26:42.665Z,21.30
2019-04-28T03:29:31.255Z,16.47
2019-04-28T03:32:28.066Z,19.20
2019-04-28T03:34:46.841Z,17.10
2019-04-28T03:37:21.567Z,17.10
2019-04-28T03:39:51.318Z,17.80
2019-04-28T03:42:22.428Z,17.17
2019-04-28T03:44:53.895Z,19.30
2019-04-28T03:47:24.924Z,16.80
2019-04-28T03:49:56.257Z,16.83
2019-04-28T03:52:27.452Z,14.93
2019-04-28T03:55:00.540Z,14.67
2019-04-28T03:57:31.511Z,14.93
2019-04-28T04:00:02.559Z,14.90
2019-04-28T04:02:34.943Z,14.23
2019-04-28T04:05:06.286Z,14.53
2019-04-28T04:07:37.423Z,14.20
2019-04-28T04:10:30.640Z,12.53
2019-04-28T04:13:16.173Z,15.73
2019-04-28T04:16:01.826Z,14.03
2019-04-28T04:18:41.445Z,13.57
2019-04-28T04:21:12.615Z,12.60
2019-04-28T04:23:43.804Z,13.30
2019-04-28T04:26:14.518Z,13.73
2019-04-28T04:28:45.506Z,13.77
2019-04-28T04:31:16.843Z,14.37
2019-04-28T04:33:50.469Z,14.57
2019-04-28T04:36:21.426Z,14.00
2019-04-28T04:38:52.585Z,13.77
2019-04-28T04:41:23.740Z,10.93
2019-04-28T04:43:54.600Z,11.30
2019-04-28T04:46:25.991Z,12.30
2019-04-28T04:48:57.609Z,9.73
2019-04-28T04:51:30.512Z,12.07
2019-04-28T04:54:01.601Z,10.00
2019-04-28T04:56:33.059Z,11.30
2019-04-28T04:59:04.746Z,10.40
2019-04-28T05:01:53.662Z,11.00
2019-04-28T05:04:50.865Z,9.33
2019-04-28T05:07:22.311Z,8.33
2019-04-28T05:09:53.151Z,8.63
2019-04-28T05:12:24.218Z,9.17
2019-04-28T05:14:55.282Z,7.30
2019-04-28T05:17:26.243Z,6.77
2019-04-28T05:19:57.475Z,7.63
2019-04-28T05:22:30.215Z,7.43
2019-04-28T05:25:32.494Z,7.10
2019-04-28T05:28:03.002Z,8.30
2019-04-28T05:30:34.831Z,6.37
2019-04-28T05:33:06.608Z,7.27
2019-04-28T05:35:39.614Z,7.30
2019-04-28T05:38:10.436Z,6.07
2019-04-28T05:40:41.438Z,9.53
2019-04-28T05:43:12.399Z,11.40
2019-04-28T05:45:43.446Z,7.27
2019-04-28T05:48:16.214Z,6.27
2019-04-28T05:50:53.628Z,12.07
2019-04-28T05:53:37.303Z,8.70
2019-04-28T05:56:30.323Z,7.13
2019-04-28T05:59:21.384Z,4.80
2019-04-28T06:01:57.901Z,7.47
2019-04-28T06:04:30.472Z,4.93
2019-04-28T06:07:07.583Z,4.53
2019-04-28T06:09:42.938Z,4.23
2019-04-28T06:12:15.070Z,4.03
2019-04-28T06:14:46.202Z,6.90
2019-04-28T06:17:17.356Z,5.73
2019-04-28T06:19:50.265Z,4.20
2019-04-28T06:22:21.106Z,5.10
2019-04-28T06:24:52.473Z,3.23
2019-04-28T06:27:23.891Z,2.67
2019-04-28T06:29:54.942Z,6.93
2019-04-28T06:32:25.947Z,4.60
2019-04-28T06:34:57.198Z,2.87
2019-04-28T06:37:28.254Z,6.30
2019-04-28T06:39:59.595Z,4.33
2019-04-28T06:42:30.634Z,6.43
2019-04-28T06:45:01.842Z,4.50
2019-04-28T06:47:33.194Z,5.83
2019-04-28T06:50:04.510Z,3.63
2019-04-28T06:52:35.547Z,4.27
2019-04-28T06:55:07.563Z,3.87
2019-04-28T06:57:38.583Z,5.33
2019-04-28T07:00:09.619Z,3.90
2019-04-28T07:02:40.730Z,4.63
2019-04-28T07:05:11.883Z,3.97
2019-04-28T07:07:42.940Z,3.93
2019-04-28T07:10:15.446Z,3.03
2019-04-28T07:12:46.507Z,3.40
2019-04-28T07:15:17.350Z,7.33
2019-04-28T07:17:48.502Z,3.10
2019-04-28T07:20:36.154Z,3.10
2019-04-28T07:23:08.238Z,6.30
2019-04-28T07:25:39.482Z,3.53
2019-04-28T07:28:11.798Z,3.13
2019-04-28T07:30:43.558Z,3.30
2019-04-28T07:33:15.749Z,8.03
2019-04-28T07:35:46.806Z,14.17
2019-04-28T07:38:18.099Z,11.17
2019-04-28T07:40:52.491Z,3.97
2019-04-28T07:43:25.643Z,4.37
2019-04-28T07:45:57.243Z,12.40
2019-04-28T07:48:28.542Z,6.40
2019-04-28T07:51:00.036Z,5.40
2019-04-28T07:53:53.799Z,4.57
2019-04-28T07:56:25.362Z,5.70
2019-04-28T07:58:57.110Z,8.50
2019-04-28T08:01:30.006Z,3.60
2019-04-28T08:04:01.314Z,2.93
2019-04-28T08:06:32.330Z,3.23
2019-04-28T08:09:03.399Z,5.00
2019-04-28T08:11:36.043Z,3.63
2019-04-28T08:14:07.190Z,3.30
2019-04-28T08:16:38.230Z,4.57
2019-04-28T08:19:09.203Z,4.90
2019-04-28T08:21:40.498Z,3.00
2019-04-28T08:24:11.865Z,5.53
2019-04-28T08:26:43.206Z,2.50
2019-04-28T08:29:15.470Z,13.33
2019-04-28T08:32:14.563Z,17.63
2019-04-28T08:34:46.007Z,4.43
2019-04-28T08:37:20.535Z,5.03
2019-04-28T08:39:53.518Z,2.50
2019-04-28T08:42:24.998Z,3.60
2019-04-28T08:44:56.044Z,7.37
2019-04-28T08:47:27.590Z,4.43
2019-04-28T08:49:58.682Z,3.97
2019-04-28T08:52:29.831Z,5.37
2019-04-28T08:55:01.458Z,4.53
2019-04-28T08:57:33.111Z,3.73
2019-04-28T09:00:04.779Z,5.87
2019-04-28T09:02:37.522Z,2.83
2019-04-28T09:05:09.052Z,3.40
2019-04-28T09:07:40.190Z,3.77
2019-04-28T09:10:12.400Z,3.20
2019-04-28T09:12:43.744Z,3.20
2019-04-28T09:15:15.426Z,3.20
2019-04-28T09:17:46.496Z,2.70
2019-04-28T09:20:17.978Z,3.50
2019-04-28T09:22:48.843Z,4.43
2019-04-28T09:25:19.778Z,3.47
2019-04-28T09:27:51.147Z,2.40
2019-04-28T09:30:22.590Z,2.47
2019-04-28T09:32:54.347Z,4.23
2019-04-28T09:35:25.402Z,4.30
2019-04-28T09:37:56.439Z,3.60
2019-04-28T09:40:28.123Z,3.40
2019-04-28T09:43:08.646Z,2.70
2019-04-28T09:45:51.792Z,3.77
2019-04-28T09:48:23.098Z,2.70
2019-04-28T09:50:54.254Z,3.10
2019-04-28T09:53:25.450Z,3.07
2019-04-28T09:55:56.418Z,2.90
2019-04-28T09:58:27.730Z,3.80
2019-04-28T10:00:58.990Z,2.80
2019-04-28T10:03:30.530Z,2.97
2019-04-28T10:06:02.047Z,3.87
2019-04-28T10:08:33.166Z,4.43
2019-04-28T10:11:04.739Z,3.07
2019-04-28T10:13:36.502Z,3.50
2019-04-28T10:16:09.048Z,4.87
2019-04-28T10:18:39.874Z,4.80
2019-04-28T10:21:11.310Z,3.23
2019-04-28T10:23:42.782Z,3.93
2019-04-28T10:26:13.995Z,5.13
2019-04-28T10:28:45.162Z,3.20
2019-04-28T10:31:17.483Z,4.50
2019-04-28T10:33:53.598Z,5.70
2019-04-28T10:36:25.270Z,6.83
2019-04-28T10:38:58.467Z,3.43
2019-04-28T10:41:35.459Z,4.03
2019-04-28T10:44:08.606Z,6.10
2019-04-28T10:46:40.062Z,4.00
2019-04-28T10:49:11.031Z,4.83
2019-04-28T10:51:42.266Z,3.67
2019-04-28T10:54:13.587Z,3.77
2019-04-28T10:56:45.099Z,3.70
2019-04-28T10:59:17.868Z,4.63
2019-04-28T11:01:49.171Z,3.37
2019-04-28T11:04:37.502Z,5.53
2019-04-28T11:07:09.908Z,4.10
2019-04-28T11:09:44.955Z,4.07
2019-04-28T11:12:22.704Z,4.07
2019-04-28T11:14:53.579Z,4.00
2019-04-28T11:17:26.111Z,3.80
2019-04-28T11:19:57.027Z,6.43
2019-04-28T11:22:28.518Z,3.47
2019-04-28T11:25:00.090Z,3.40
2019-04-28T11:27:31.374Z,6.03
2019-04-28T11:30:03.327Z,3.43
2019-04-28T11:32:36.223Z,4.67
2019-04-28T11:35:26.486Z,5.90
2019-04-28T11:37:57.514Z,3.47
2019-04-28T11:40:28.986Z,5.90
2019-04-28T11:43:00.431Z,3.73
2019-04-28T11:45:31.643Z,3.90
2019-04-28T11:48:03.082Z,3.90
2019-04-28T11:50:34.218Z,4.23
2019-04-28T11:53:05.386Z,4.73
2019-04-28T11:55:36.571Z,4.57
2019-04-28T11:58:07.904Z,5.27
2019-04-28T12:00:39.151Z,3.40
2019-04-28T12:03:11.227Z,4.73
2019-04-28T12:05:46.314Z,3.40
2019-04-28T12:08:18.337Z,5.03
2019-04-28T12:11:11.203Z,3.23
2019-04-28T12:14:10.302Z,3.63
2019-04-28T12:16:54.975Z,5.97
2019-04-28T12:19:39.532Z,5.10
2019-04-28T12:22:10.911Z,3.83
2019-04-28T12:24:41.967Z,4.00
2019-04-28T12:27:12.935Z,4.53
2019-04-28T12:29:44.263Z,4.57
2019-04-28T12:32:15.574Z,4.30
2019-04-28T12:34:46.555Z,6.43
2019-04-28T12:37:17.578Z,4.93
2019-04-28T12:39:48.815Z,5.70
2019-04-28T12:42:19.799Z,5.63
2019-04-28T12:44:51.523Z,3.23
2019-04-28T12:47:22.999Z,3.97
2019-04-28T12:50:01.982Z,3.60
2019-04-28T12:52:33.266Z,4.20
2019-04-28T12:55:05.260Z,4.67
2019-04-28T12:57:36.336Z,5.47
2019-04-28T13:00:27.427Z,5.40
2019-04-28T13:03:15.852Z,3.30
2019-04-28T13:06:00.196Z,3.50
2019-04-28T13:08:20.095Z,4.43
2019-04-28T13:10:51.364Z,4.10
2019-04-28T13:13:23.052Z,3.90
2019-04-28T13:15:54.286Z,4.40
2019-04-28T13:18:25.574Z,6.07
2019-04-28T13:20:59.027Z,4.83
2019-04-28T13:23:29.899Z,5.57
2019-04-28T13:26:01.247Z,5.03
2019-04-28T13:28:32.958Z,4.70
2019-04-28T13:31:04.020Z,4.60
2019-04-28T13:33:35.226Z,4.03
2019-04-28T13:36:14.605Z,4.33
2019-04-28T13:38:39.946Z,4.63
2019-04-28T13:41:11.362Z,4.37
2019-04-28T13:43:42.630Z,4.30
2019-04-28T13:46:13.754Z,4.20
2019-04-28T13:48:46.167Z,4.30
2019-04-28T13:51:17.510Z,4.50
2019-04-28T13:53:48.822Z,4.30
2019-04-28T13:56:20.315Z,4.57
2019-04-28T13:59:15.050Z,5.10
2019-04-28T14:02:10.099Z,5.40
2019-04-28T14:05:05.558Z,5.40
2019-04-28T14:07:37.102Z,4.73
2019-04-28T14:10:09.300Z,6.17
2019-04-28T14:12:40.634Z,4.73
2019-04-28T14:15:12.565Z,5.73
2019-04-28T14:17:44.643Z,5.00
2019-04-28T14:20:16.077Z,5.00
2019-04-28T14:22:47.858Z,5.80
2019-04-28T14:25:18.929Z,5.60
2019-04-28T14:27:50.264Z,5.77
2019-04-28T14:30:21.470Z,7.23
2019-04-28T14:32:53.172Z,5.10
2019-04-28T14:35:24.183Z,5.77
2019-04-28T14:37:55.220Z,5.20
2019-04-28T14:40:26.598Z,5.37
2019-04-28T14:42:57.878Z,6.13
2019-04-28T14:45:29.167Z,5.60
2019-04-28T14:48:00.371Z,6.20
2019-04-28T14:50:31.950Z,6.43
2019-04-28T14:53:03.074Z,6.63
2019-04-28T14:55:34.409Z,6.37
2019-04-28T14:58:05.347Z,6.33
2019-04-28T15:00:41.183Z,6.07
2019-04-28T15:03:13.718Z,6.63
2019-04-28T15:06:02.595Z,6.63
2019-04-28T15:08:59.171Z,6.50
2019-04-28T15:11:52.130Z,8.20
2019-04-28T15:14:23.556Z,7.53
2019-04-28T15:16:54.707Z,8.03
2019-04-28T15:19:25.885Z,8.13
2019-04-28T15:21:58.299Z,7.93
2019-04-28T15:24:29.414Z,7.77
2019-04-28T15:27:00.986Z,7.87
2019-04-28T15:29:32.950Z,8.60
2019-04-28T15:32:03.839Z,8.67
2019-04-28T15:34:35.182Z,8.93
2019-04-28T15:37:09.916Z,8.27
2019-04-28T15:39:39.286Z,8.13
2019-04-28T15:42:10.482Z,9.17
2019-04-28T15:44:41.886Z,7.80
2019-04-28T15:47:12.987Z,8.97
2019-04-28T15:49:44.114Z,8.47
2019-04-28T15:52:15.614Z,8.73
2019-04-28T15:54:47.233Z,9.23
2019-04-28T15:57:18.350Z,10.73
2019-04-28T15:59:49.782Z,8.43
2019-04-28T16:02:21.403Z,7.67
2019-04-28T16:04:52.920Z,9.97
2019-04-28T16:07:25.301Z,8.77
2019-04-28T16:09:57.019Z,9.03
2019-04-28T16:12:28.298Z,8.07
2019-04-28T16:14:59.966Z,9.40
2019-04-28T16:17:31.610Z,10.30
2019-04-28T16:20:04.027Z,9.70
2019-04-28T16:22:35.766Z,9.40
2019-04-28T16:25:07.610Z,8.97
2019-04-28T16:27:39.190Z,9.77
2019-04-28T16:30:10.639Z,10.27
2019-04-28T16:32:41.936Z,10.47
2019-04-28T16:35:13.630Z,10.43
2019-04-28T16:37:46.186Z,12.93
2019-04-28T16:40:17.358Z,10.87
2019-04-28T16:42:56.110Z,10.90
2019-04-28T16:45:27.395Z,13.63
2019-04-28T16:47:58.414Z,18.50
2019-04-28T16:50:29.796Z,14.80
2019-04-28T16:53:01.478Z,13.23
2019-04-28T16:55:40.514Z,15.37
2019-04-28T16:58:25.262Z,13.93
2019-04-28T17:01:33.663Z,14.47
2019-04-28T17:04:05.522Z,13.67
2019-04-28T17:06:36.590Z,11.83
2019-04-28T17:09:09.029Z,13.67
2019-04-28T17:11:41.965Z,12.00
2019-04-28T17:14:17.207Z,10.97
2019-04-28T17:16:48.966Z,11.30
2019-04-28T17:19:22.455Z,13.10
2019-04-28T17:21:53.942Z,11.80
2019-04-28T17:24:25.292Z,11.63
2019-04-28T17:26:56.538Z,12.20
2019-04-28T17:29:28.810Z,13.03
2019-04-28T17:32:00.251Z,11.90
2019-04-28T17:34:31.587Z,14.53
2019-04-28T17:37:02.854Z,14.57
2019-04-28T17:39:34.743Z,12.50
2019-04-28T17:42:07.610Z,12.20
2019-04-28T17:44:38.987Z,11.70
2019-04-28T17:47:10.461Z,11.67
2019-04-28T17:49:42.270Z,12.67
2019-04-28T17:52:13.987Z,11.90
2019-04-28T17:54:45.350Z,13.57
2019-04-28T17:57:16.655Z,12.53
2019-04-28T17:59:49.618Z,12.43
2019-04-28T18:02:38.763Z,13.20
2019-04-28T18:05:31.198Z,11.33
2019-04-28T18:08:04.743Z,11.80
2019-04-28T18:10:37.462Z,11.73
2019-04-28T18:13:08.264Z,11.27
2019-04-28T18:15:56.718Z,12.10
2019-04-28T18:18:32.754Z,11.83
2019-04-28T18:21:04.526Z,11.47
2019-04-28T18:23:36.916Z,11.33
2019-04-28T18:26:07.970Z,10.73
2019-04-28T18:28:38.982Z,11.20
2019-04-28T18:31:27.014Z,11.50
2019-04-28T18:34:15.374Z,11.00
2019-04-28T18:36:55.791Z,9.80
2019-04-28T18:39:46.267Z,9.77
2019-04-28T18:42:25.509Z,10.60
2019-04-28T18:44:57.243Z,10.57
2019-04-28T18:47:28.787Z,10.00
2019-04-28T18:50:00.538Z,9.33
2019-04-28T18:52:32.396Z,10.17
2019-04-28T18:55:03.823Z,10.00
2019-04-28T18:57:35.502Z,9.77
2019-04-28T19:00:08.387Z,9.67
2019-04-28T19:02:45.991Z,9.10
2019-04-28T19:05:18.690Z,9.37
2019-04-28T19:08:14.854Z,11.93
2019-04-28T19:11:05.789Z,8.57
2019-04-28T19:13:41.770Z,8.30
2019-04-28T19:16:34.611Z,10.60
2019-04-28T19:19:08.814Z,10.00
2019-04-28T19:21:39.967Z,8.70
2019-04-28T19:24:11.631Z,8.73
2019-04-28T19:26:42.866Z,9.37
2019-04-28T19:29:14.450Z,9.80
2019-04-28T19:31:45.486Z,8.60
2019-04-28T19:34:16.573Z,9.60
2019-04-28T19:36:48.290Z,10.77
2019-04-28T19:39:21.706Z,10.13
2019-04-28T19:41:53.122Z,10.37
2019-04-28T19:44:24.550Z,10.23
2019-04-28T19:46:56.015Z,12.67
2019-04-28T19:49:27.325Z,11.17
2019-04-28T19:51:59.299Z,11.80
2019-04-28T19:54:34.674Z,11.20
2019-04-28T19:57:24.050Z,11.37
2019-04-28T20:00:26.298Z,12.37
2019-04-28T20:02:57.774Z,12.73
2019-04-28T20:05:28.955Z,11.33
2019-04-28T20:08:00.328Z,12.03
2019-04-28T20:10:33.107Z,12.43
2019-04-28T20:13:04.179Z,13.90
2019-04-28T20:15:35.542Z,12.90
2019-04-28T20:18:06.762Z,13.13
2019-04-28T20:20:38.070Z,13.33
2019-04-28T20:23:09.116Z,18.33
2019-04-28T20:25:40.602Z,13.27
2019-04-28T20:28:12.618Z,14.97
2019-04-28T20:30:45.440Z,14.00
2019-04-28T20:33:16.695Z,13.63
2019-04-28T20:35:52.797Z,14.87
2019-04-28T20:38:29.860Z,15.13
2019-04-28T20:41:28.971Z,13.87
2019-04-28T20:44:00.679Z,13.93
2019-04-28T20:46:32.098Z,15.20
2019-04-28T20:49:04.578Z,15.00
2019-04-28T20:51:36.101Z,14.63
2019-04-28T20:54:07.367Z,15.60
2019-04-28T20:56:38.426Z,13.63
2019-04-28T20:59:09.606Z,12.63
2019-04-28T21:01:40.839Z,14.13
2019-04-28T21:04:11.975Z,14.00
2019-04-28T21:06:43.194Z,13.07
2019-04-28T21:09:14.258Z,13.27
2019-04-28T21:11:45.335Z,12.90
2019-04-28T21:14:16.411Z,13.30
2019-04-28T21:16:47.642Z,9.23
2019-04-28T21:19:19.058Z,11.00
2019-04-28T21:21:50.323Z,11.53
2019-04-28T21:24:23.799Z,12.40
2019-04-28T21:26:55.222Z,10.63
2019-04-28T21:29:26.586Z,11.77
2019-04-28T21:31:57.632Z,10.87
2019-04-28T21:34:28.814Z,10.20
2019-04-28T21:36:59.929Z,8.80
2019-04-28T21:39:31.078Z,11.17
2019-04-28T21:42:03.863Z,11.03
2019-04-28T21:44:44.657Z,10.40
2019-04-28T21:47:26.782Z,9.10
2019-04-28T21:49:58.170Z,8.53
2019-04-28T21:52:29.539Z,9.53
2019-04-28T21:55:00.630Z,8.73
2019-04-28T21:57:31.643Z,9.10
2019-04-28T22:00:09.463Z,10.10
2019-04-28T22:02:38.999Z,8.77
2019-04-28T22:05:10.890Z,7.27
2019-04-28T22:07:43.211Z,10.53
2019-04-28T22:10:14.170Z,8.70
2019-04-28T22:12:45.030Z,9.07
2019-04-28T22:15:16.119Z,10.00
2019-04-28T22:17:47.474Z,9.70
2019-04-28T22:20:18.521Z,8.40
2019-04-28T22:22:49.818Z,8.07
2019-04-28T22:25:22.750Z,7.67
2019-04-28T22:27:53.830Z,8.80
2019-04-28T22:30:25.251Z,7.03
2019-04-28T22:32:56.250Z,7.60
2019-04-28T22:35:27.145Z,7.37
2019-04-28T22:37:58.234Z,9.43
2019-04-28T22:40:29.167Z,8.43
2019-04-28T22:43:00.426Z,11.43
2019-04-28T22:45:32.418Z,8.67
2019-04-28T22:48:04.190Z,8.47
2019-04-28T22:50:40.694Z,8.83
2019-04-28T22:53:12.291Z,10.43
2019-04-28T22:55:52.331Z,9.43
2019-04-28T22:58:41.138Z,8.60
2019-04-28T23:01:17.135Z,9.80
2019-04-28T23:04:10.044Z,9.23
2019-04-28T23:06:41.395Z,11.33
2019-04-28T23:09:14.510Z,9.93
2019-04-28T23:11:45.542Z,10.37
2019-04-28T23:14:16.658Z,10.57
2019-04-28T23:16:47.684Z,10.30
2019-04-28T23:19:20.377Z,10.30
2019-04-28T23:22:13.154Z,9.93
2019-04-28T23:24:44.478Z,11.13
2019-04-28T23:27:15.875Z,12.77
2019-04-28T23:29:46.595Z,10.47
2019-04-28T23:32:17.784Z,9.73
2019-04-28T23:34:48.750Z,11.70
2019-04-28T23:37:21.162Z,10.00
2019-04-28T23:39:52.190Z,10.87
2019-04-28T23:42:28.735Z,11.37
2019-04-28T23:44:59.654Z,12.27
2019-04-28T23:47:31.746Z,10.23
2019-04-28T23:50:04.534Z,11.00
2019-04-28T23:52:59.607Z,13.80
2019-04-28T23:55:31.075Z,12.00
2019-04-28T23:58:02.287Z,13.07
